Historyczne dane pomiarowe

Dodano dane terminowe – wersja testowa.

Dane z okresu 1951-2019

Wersja bazy: 1.34 [2019-03-16, lista zmian], aktualizacja planowana na 2019-04-15

Dane meteo z obszaru Polski uzyskane na podstawie danych udostępnionych przez Instytut Meteorologii i Gospodarki Wodnej – Państwowy Instytut Badawczy.

 

Wybierz Datę:    

       

TemperaturaWilgotnośćWiatrCiśnienieOpadyŚniegCzas trwania zjawisk
 Stacja t tx tn tng RH VA  wxwx mslp ppp RRR   cm mm wxwxwxwxwxwxwx
1987-07-16 17.9 27.2 9.2- 75.8- 7.3 0.0---- 0.0------------
1987-07-17 19.6 28.6 11.5- 77.3- 6.7 0.0---- 0.0------------
1987-07-18 20.5 29.2 10.8- 72.3- 5.3 0.0---- 0.0------------
1987-07-19 20.9 29.3 14.5- 76.3- 6.7 0.0---- 0.1------------
1987-07-20 21.2 26.4 15.3- 73.0- 5.3 1.7---- 0.0------------
1987-07-21 20.5 26.2 11.3- 66.8- 5.3 0.7---- 0.0------------
1987-07-22 17.8 22.3 10.3- 78.0- 7.3 0.0---- 0.0------------
1987-07-23 18.4 26.4 9.8- 76.5- 6.0 0.7---- 4.0------------
1987-07-24 18.5 28.6 13.1- 75.3- 5.3 0.7---- 25.2------------
1987-07-25 17.6 21.3 12.3- 75.8- 7.3 2.3---- 0.3------------
1987-07-26 13.0 19.0 10.3- 82.8- 8.0 0.0---- 12.4------------
1987-07-27 11.1 15.2 6.5- 68.8- 6.0 2.3---- 0.4------------
1987-07-28 11.9 14.4 10.1- 85.5- 8.0 1.7---- 8.2------------
1987-07-29 12.2 17.2 6.3- 77.3- 7.3 1.7---- 0.0------------
1987-07-30 14.5 21.0 9.3- 80.8- 6.0 0.0---- 0.3------------
1987-07-31 14.7 20.0 9.8- 90.0- 8.0 1.0---- 2.2------------
1987-08-01 13.5 21.5 4.8- 77.8- 6.7 1.0---- 3.2------------
1987-08-02 13.4 16.0 11.1- 70.8- 8.0 1.7---- 8.4------------
1987-08-03 13.8 20.0 8.3- 72.5- 8.0 1.0---- 0.0------------
1987-08-04 11.7 17.0 7.8- 84.5- 8.0 1.3---- 6.5------------
1987-08-05 10.4 15.5 7.4- 84.8- 8.0 2.0---- 3.5------------
1987-08-06 9.2 13.3 6.8- 80.5- 8.0 2.0---- 1.6------------
1987-08-07 7.4 15.0 1.3- 77.0- 8.0 0.0---- 0.0------------
1987-08-08 11.0 19.6 3.3- 75.0- 6.7 0.7---- 0.0------------
1987-08-09 11.9 23.5 2.3- 71.8- 5.3 0.0---- 0.1------------
1987-08-10 13.5 18.5 10.8- 84.0- 8.0 1.3---- 3.5------------
1987-08-11 12.3 17.0 9.0- 76.5- 7.3 3.3---- 0.0------------
1987-08-12 9.9 18.0 3.3- 76.3- 6.7 1.0---- 0.0------------
1987-08-13 9.9 15.5 2.8- 75.8- 8.0 0.0---- 0.0------------
1987-08-14 9.4 18.3 1.3- 76.0- 8.0 1.0---- 0.1------------
326.8 ms

 

Źródłem pochodzenia danych jest Instytut Meteorologii i Gospodarki Wodnej – Państwowy Instytut Badawczy. Dane Instytutu Meteorologii i Gospodarki Wodnej – Państwowego Instytutu Badawczego zostały przetworzone.

Dane źródłowe można odnaleźć na stronie https://dane.imgw.pl